Flight Track Log - Related Links

Times and Time Zones

All times are in EDT time to prevent confusion due to time zone crossing. See the SWA3677 flight status page for this flight to view local times or setup timezone preferences in your user account.

Time Position Orientation Groundspeed Altitude Reporting Facility
EDT Latitude Longitude Course Direction KTS MPH feet Rate Location/Type
Fri 10:53:59 AM 27.9667 -82.5500 190° South 167 192 700  Level Tampa TRACON
Fri 10:55:29 AM 27.8833 -82.5667 190° South 207 238 3,900 1,923 Climbing Tampa TRACON
Fri 10:56:35 AM 27.8833 -82.6500 270° West 271 312 5,700 2,226 Climbing Tampa TRACON
Fri 10:58:08 AM 27.9933 -82.6739 349° North 292 336 9,800 2,314 Climbing Jacksonville Center
Fri 10:59:08 AM 28.0808 -82.6878 352° North 294 338 11,600 2,400 Climbing Jacksonville Center
Fri 11:00:08 AM 28.1811 -82.6972 355° North 333 383 14,600 2,750 Climbing Jacksonville Center
Fri 11:01:08 AM 28.2856 -82.7039 357° North 356 410 17,100 1,200 Climbing Jacksonville Center
Fri 11:02:08 AM 28.3878 -82.6897 North 361 415 17,000 100 Descending Jacksonville Center
Fri 11:03:08 AM 28.4897 -82.6542 17° North 370 426 17,300 1,400 Climbing Jacksonville Center
Fri 11:04:08 AM 28.5942 -82.6158 18° North 376 433 19,800 1,300 Climbing Jacksonville Center
Fri 11:05:08 AM 28.7006 -82.5897 12° North 382 440 19,900 50 Climbing Jacksonville Center
Fri 11:06:08 AM 28.8092 -82.6083 351° North 382 440 19,900 1,100 Level Jacksonville Center
Fri 11:07:08 AM 28.9175 -82.6244 353° North 388 447 22,100 2,050 Climbing Jacksonville Center
Fri 11:08:08 AM 29.0303 -82.6408 353° North 395 455 24,000 1,900 Climbing Jacksonville Center
Fri 11:09:08 AM 29.1453 -82.6761 345° North 407 468 25,900 1,900 Climbing Jacksonville Center
Fri 11:10:08 AM 29.2581 -82.7331 336° Northwest 428 493 27,800 1,700 Climbing Jacksonville Center
Fri 11:11:08 AM 29.3814 -82.7592 350° North 434 499 29,300 1,500 Climbing Jacksonville Center
Fri 11:12:08 AM 29.5189 -82.7089 18° North 448 516 30,800 1,750 Climbing Jacksonville Center
Fri 11:13:08 AM 29.6378 -82.6511 23° Northeast 462 532 32,800 1,750 Climbing Jacksonville Center
Fri 11:14:08 AM 29.7608 -82.5936 22° Northeast 462 532 34,300 1,050 Climbing Jacksonville Center
Fri 11:15:08 AM 29.8819 -82.5333 23° Northeast 462 532 34,900 300 Climbing Jacksonville Center
Fri 11:16:08 AM 30.0092 -82.5422 357° North 453 521 34,900  Level Jacksonville Center
Fri 11:17:08 AM 30.1367 -82.5828 345° North 447 514 34,900 350 Level Jacksonville Center
Fri 11:18:08 AM 30.2597 -82.5583 10° North 446 513 35,600 1,000 Climbing Jacksonville Center
Fri 11:19:08 AM 30.3828 -82.5097 19° North 446 513 36,900 650 Climbing Jacksonville Center
Fri 11:20:08 AM 30.5039 -82.4611 19° North 452 520 36,900  Level Jacksonville Center
Fri 11:21:08 AM 30.6267 -82.4097 20° North 464 534 36,900 50 Level Jacksonville Center
Fri 11:22:08 AM 30.7497 -82.3631 18° North 464 534 37,000  Climbing Jacksonville Center
Fri 11:23:08 AM 30.8728 -82.3142 19° North 464 534 36,900 -50 Descending Jacksonville Center
Fri 11:24:08 AM 30.9958 -82.2625 20° North 464 534 36,900  Level Jacksonville Center
Fri 11:25:08 AM 31.1186 -82.2131 19° North 464 534 36,900  Level Jacksonville Center
Fri 11:26:08 AM 31.2144 -82.1639 24° Northeast 464 534 36,900  Level Jacksonville Center
Fri 11:27:08 AM 31.3436 -82.0972 24° Northeast 464 534 36,900  Level Jacksonville Center
Fri 11:28:08 AM 31.4642 -82.0328 25° Northeast 464 534 36,900 50 Level Jacksonville Center
Fri 11:29:08 AM 31.5953 -81.9633 24° Northeast 455 524 37,000 50 Climbing Jacksonville Center
Fri 11:30:08 AM 31.7014 -81.9061 25° Northeast 463 533 37,000  Level Jacksonville Center
Fri 11:31:08 AM 31.8322 -81.8361 24° Northeast 463 533 37,000  Level Jacksonville Center
Fri 11:32:08 AM 31.9383 -81.7786 25° Northeast 463 533 37,000  Level Jacksonville Center
Fri 11:33:08 AM 32.0711 -81.7108 23° Northeast 457 526 37,000  Level Jacksonville Center
Fri 11:34:08 AM 32.1917 -81.6456 25° Northeast 471 542 37,000  Level Jacksonville Center
Fri 11:35:08 AM 32.2997 -81.5875 24° Northeast 471 542 37,000 50 Level Jacksonville Center
Fri 11:36:08 AM 32.4347 -81.5142 25° Northeast 477 549 37,100 750 Climbing Jacksonville Center
Fri 11:37:08 AM 32.5528 -81.4483 25° Northeast 477 549 38,500 950 Climbing Jacksonville Center
Fri 11:38:08 AM 32.6608 -81.3922 24° Northeast 471 542 39,000 200 Climbing Jacksonville Center
Fri 11:39:08 AM 32.7769 -81.3261 26° Northeast 466 536 38,900 -50 Descending Jacksonville Center
Fri 11:40:08 AM 32.8950 -81.2622 24° Northeast 458 527 38,900  Level Jacksonville Center
Fri 11:41:08 AM 33.0131 -81.1956 25° Northeast 458 527 38,900  Level Jacksonville Center
Fri 11:42:08 AM 33.1333 -81.1314 24° Northeast 458 527 38,900  Level Jacksonville Center
Fri 11:43:08 AM 33.2597 -81.0619 25° Northeast 463 533 38,900  Level Jacksonville Center
Fri 11:44:08 AM 33.3817 -80.9947 25° Northeast 463 533 38,900  Level Jacksonville Center
Fri 11:45:08 AM 33.5019 -80.9272 25° Northeast 463 533 38,900  Level Jacksonville Center
Fri 11:46:08 AM 33.6217 -80.8597 25° Northeast 463 533 38,900  Level Jacksonville Center
Fri 11:47:08 AM 33.7458 -80.7919 24° Northeast 473 544 38,900  Level Jacksonville Center
Fri 11:48:08 AM 33.8658 -80.7242 25° Northeast 473 544 38,900  Level Jacksonville Center
Fri 11:49:08 AM 33.9878 -80.6583 24° Northeast 478 550 38,900  Level Jacksonville Center
Fri 11:50:08 AM 34.1075 -80.5878 26° Northeast 478 550 38,900  Level Jacksonville Center
Fri 11:51:08 AM 34.2253 -80.5242 24° Northeast 473 544 38,900  Level Jacksonville Center
Fri 11:52:08 AM 34.3450 -80.4531 26° Northeast 473 544 38,900  Level Jacksonville Center
Fri 11:53:08 AM 34.4644 -80.3842 25° Northeast 473 544 38,900 29 Level Jacksonville Center
Fri 11:55:38 AM 34.6906 -80.1336 42° Northeast 463 533 39,000 29 Climbing Washington Center
Fri 11:56:36 AM 34.7844 -80.0275 43° Northeast 469 540 39,000  Level Washington Center
Fri 11:57:37 AM 34.8950 -79.9069 42° Northeast 469 540 39,000  Level Washington Center
Fri 11:58:37 AM 34.9928 -79.8006 42° Northeast 464 534 39,000  Level Washington Center
Fri 11:59:35 AM 35.0886 -79.6889 44° Northeast 464 534 39,000  Level Washington Center
Fri 12:00:36 PM 35.1842 -79.5792 43° Northeast 464 534 39,000  Level Washington Center
Fri 12:01:37 PM 35.2817 -79.4697 42° Northeast 464 534 39,000  Level Washington Center
Fri 12:02:37 PM 35.3811 -79.3572 43° Northeast 464 534 39,000  Level Washington Center
Fri 12:03:35 PM 35.4678 -79.2594 43° Northeast 464 534 39,000  Level Washington Center
Fri 12:04:37 PM 35.5608 -79.1461 45° Northeast 459 528 39,000  Level Washington Center
Fri 12:05:35 PM 35.6644 -79.0306 42° Northeast 459 528 39,000  Level Washington Center
Fri 12:06:36 PM 35.7592 -78.9222 43° Northeast 459 528 39,000  Level Washington Center
Fri 12:07:37 PM 35.8542 -78.8108 44° Northeast 459 528 39,000  Level Washington Center
Fri 12:08:37 PM 35.9547 -78.7147 38° Northeast 459 528 39,000  Level Washington Center
Fri 12:09:37 PM 36.0572 -78.6239 36° Northeast 459 528 39,000  Level Washington Center
Fri 12:10:35 PM 36.1639 -78.5328 35° Northeast 453 521 39,000  Level Washington Center
Fri 12:11:36 PM 36.2639 -78.4436 36° Northeast 447 514 39,000  Level Washington Center
Fri 12:12:37 PM 36.3642 -78.3544 36° Northeast 447 514 39,000  Level Washington Center
Fri 12:13:37 PM 36.4686 -78.2625 35° Northeast 452 520 39,000  Level Washington Center
Fri 12:14:35 PM 36.5706 -78.1706 36° Northeast 452 520 39,000  Level Washington Center
Fri 12:15:35 PM 36.6706 -78.0806 36° Northeast 447 514 39,000  Level Washington Center
Fri 12:16:37 PM 36.7728 -77.9878 36° Northeast 447 514 39,000  Level Washington Center
Fri 12:17:38 PM 36.8747 -77.8844 39° Northeast 447 514 39,000  Level Washington Center
Fri 12:18:36 PM 36.9522 -77.7542 53° Northeast 453 521 39,000  Level Washington Center
Fri 12:19:36 PM 37.0275 -77.6289 53° Northeast 459 528 39,000  Level Washington Center
Fri 12:20:37 PM 37.1028 -77.5006 54° Northeast 459 528 39,000  Level Washington Center
Fri 12:21:35 PM 37.1797 -77.3697 54° Northeast 459 528 39,000  Level Washington Center
Fri 12:22:36 PM 37.2525 -77.2436 54° Northeast 459 528 39,000  Level Washington Center
Fri 12:23:36 PM 37.3228 -77.1300 52° Northeast 454 522 39,000  Level Washington Center
Fri 12:24:38 PM 37.4367 -77.0356 33° Northeast 442 509 39,000  Level Washington Center
Fri 12:25:35 PM 37.5375 -76.9642 29° Northeast 442 509 39,000  Level Washington Center
Fri 12:26:35 PM 37.6386 -76.8872 31° Northeast 442 509 39,000  Level Washington Center
Fri 12:27:36 PM 37.7417 -76.8103 31° Northeast 432 497 39,000  Level Washington Center
Fri 12:28:37 PM 37.8467 -76.7306 31° Northeast 432 497 39,000  Level Washington Center
Fri 12:29:35 PM 37.9517 -76.6531 30° Northeast 432 497 39,000  Level Washington Center
Fri 12:30:36 PM 38.0567 -76.5753 30° Northeast 432 497 39,000  Level Washington Center
Fri 12:31:36 PM 38.1614 -76.4950 31° Northeast 432 497 39,000  Level Washington Center
Fri 12:32:37 PM 38.2789 -76.4064 31° Northeast 432 497 39,000  Level Washington Center
Fri 12:33:35 PM 38.3647 -76.3278 36° Northeast 432 497 39,000  Level Washington Center
Fri 12:34:35 PM 38.4614 -76.2386 36° Northeast 427 491 39,000  Level Washington Center
Fri 12:35:37 PM 38.5722 -76.1333 37° Northeast 441 507 39,000 -50 Level Washington Center
Fri 12:36:35 PM 38.6644 -76.0517 35° Northeast 447 514 38,900 -50 Descending Washington Center
Fri 12:37:36 PM 38.7628 -75.9617 36° Northeast 442 509 38,900  Level Washington Center
Fri 12:38:36 PM 38.8589 -75.8689 37° Northeast 436 502 38,900  Level Washington Center
Fri 12:39:37 PM 38.9569 -75.7758 36° Northeast 436 502 38,900  Level Washington Center
Fri 12:40:36 PM 39.0550 -75.6853 36° Northeast 431 496 38,900  Level Washington Center
Fri 12:41:36 PM 39.1531 -75.5942 36° Northeast 431 496 38,900  Level Washington Center
Fri 12:42:37 PM 39.2489 -75.5031 36° Northeast 431 496 38,900  Level Washington Center
Fri 12:43:35 PM 39.3467 -75.4117 36° Northeast 431 496 38,900  Level Washington Center
Fri 12:44:36 PM 39.4444 -75.3256 34° Northeast 431 496 38,900  Level Washington Center
Fri 12:45:37 PM 39.5422 -75.2389 34° Northeast 431 496 38,900  Level Washington Center
Fri 12:46:37 PM 39.6356 -75.1522 36° Northeast 426 490 38,900  Level Washington Center
Fri 12:46:58 PM 39.6728 -75.1214 33° Northeast 428 493 38,900 75 Level New York Center
Fri 12:47:57 PM 39.7719 -75.0275 36° Northeast 446 513 39,000 50 Climbing New York Center
Fri 12:48:57 PM 39.8664 -74.9494 32° Northeast 433 498 39,000 -50 Level New York Center
Fri 12:49:58 PM 39.9786 -74.8450 35° Northeast 426 490 38,900 -50 Descending New York Center
Fri 12:50:58 PM 40.0644 -74.7714 33° Northeast 426 490 38,900  Level New York Center
Fri 12:51:59 PM 40.1592 -74.6819 36° Northeast 426 490 38,900  Level New York Center
Fri 12:52:59 PM 40.2583 -74.5786 38° Northeast 419 482 38,900  Level New York Center
Fri 12:53:57 PM 40.3550 -74.4914 35° Northeast 413 475 38,900  Level New York Center
Fri 12:54:57 PM 40.4475 -74.3981 38° Northeast 413 475 38,900  Level New York Center
Fri 12:55:58 PM 40.5397 -74.3103 36° Northeast 413 475 38,900  Level New York Center
Fri 12:57:44 PM 40.7056 -74.1511 36° Northeast 406 467 38,900  Level Boston Center
Fri 12:58:44 PM 40.7900 -74.0711 36° Northeast 412 474 38,900  Level Boston Center
Fri 12:59:44 PM 40.8831 -73.9803 36° Northeast 412 474 38,900  Level Boston Center
Fri 01:00:44 PM 40.9739 -73.8889 37° Northeast 412 474 38,900  Level Boston Center
Fri 01:01:44 PM 41.0667 -73.7972 37° Northeast 412 474 38,900  Level Boston Center
Fri 01:02:44 PM 41.1594 -73.7056 37° Northeast 417 480 38,900  Level Boston Center
Fri 01:03:44 PM 41.2642 -73.6744 13° North 387 445 38,900  Level Boston Center
Fri 01:04:44 PM 41.3744 -73.6822 357° North 378 435 38,900 -350 Level Boston Center
Fri 01:05:44 PM 41.4869 -73.6925 356° North 383 441 38,200 -800 Descending Boston Center
Fri 01:06:44 PM 41.5950 -73.7031 356° North 383 441 37,300 -900 Descending Boston Center
Fri 01:07:44 PM 41.7075 -73.7108 357° North 388 447 36,400 -1,350 Descending Boston Center
Fri 01:08:44 PM 41.8261 -73.7272 354° North 388 447 34,600 -1,650 Descending Boston Center
Fri 01:09:44 PM 41.9158 -73.7344 357° North 388 447 33,100 -800 Descending Boston Center
Fri 01:10:44 PM 42.0511 -73.7458 356° North 393 452 33,000 -1,250 Descending Boston Center
Fri 01:11:44 PM 42.1636 -73.7564 356° North 399 459 30,600 -2,450 Descending Boston Center
Fri 01:12:44 PM 42.2783 -73.7450 North 405 466 28,100 -2,500 Descending Boston Center
Fri 01:13:44 PM 42.3464 -73.6114 55° Northeast 384 442 25,600 -2,150 Descending Boston Center
Fri 01:14:44 PM 42.3978 -73.4633 65° Northeast 398 458 23,800 -1,400 Descending Boston Center
Fri 01:15:44 PM 42.4450 -73.3208 66° East 468 539 22,800 -1,000 Descending Boston Center
Fri 01:17:44 PM 42.5425 -73.0403 65° Northeast 413 475 20,800 -1,000 Descending Boston Center
Fri 01:18:44 PM 42.5892 -72.9053 65° Northeast 395 455 19,800 -900 Descending Boston Center
Fri 01:19:44 PM 42.6250 -72.7675 70° East 390 449 19,000 -400 Descending Boston Center
Fri 01:20:44 PM 42.6567 -72.6319 72° East 385 443 19,000 -600 Level Boston Center
Fri 01:21:44 PM 42.6881 -72.5050 71° East 371 427 17,800 -1,900 Descending Boston Center
Fri 01:22:44 PM 42.7172 -72.3781 73° East 358 412 15,200 -2,550 Descending Boston Center
Fri 01:23:44 PM 42.7442 -72.2478 74° East 353 406 12,700 -2,250 Descending Boston Center
Fri 01:24:44 PM 42.7772 -72.1147 71° East 340 391 10,700 -1,350 Descending Boston Center
Fri 01:25:44 PM 42.7956 -72.0186 75° East 310 357 10,000 -1,250 Descending Boston Center
Fri 01:26:44 PM 42.8181 -71.9108 74° East 270 311 8,200 -1,850 Descending Boston Center
Fri 01:27:44 PM 42.8364 -71.8228 74° East 265 305 6,300 -1,750 Descending Boston Center
Fri 01:28:44 PM 42.8400 -71.7236 87° East 242 278 4,700 -1,450 Descending Boston Center
Fri 01:29:44 PM 42.7939 -71.6733 141° Southeast 208 239 3,400 -1,200 Descending Boston Center
Fri 01:30:44 PM 42.8225 -71.5936 64° Northeast 198 228 2,300 -700 Descending Boston Center
Fri 01:31:44 PM 42.8575 -71.5394 49° Northeast 203 234 2,000 -600 Descending Boston Center
Fri 01:32:44 PM 42.8986 -71.4878 43° Northeast 189 217 1,100 3,500 Descending Boston Center
Fri 01:33:44 PM 42.9233 -71.4561 43° Northeast 145 167 9,000 3,950 Climbing Boston Center
Fri 01:34:44 PM 42.9586 -71.4158 40° Northeast 145 167 9,000  Level Boston Center
Fri 01:35:44 PM 42.9894 -71.3786 41° Northeast 145 167 9,000  Level Boston Center
Fri 01:36:44 PM 43.0203 -71.3439 39° Northeast 145 167 9,000  Level Boston Center
Fri 01:37:44 PM 43.0514 -71.3064 41° Northeast 145 167 9,000  Level Boston Center
Fri 01:39:00 PM 42.9286 -71.4221 215° Southwest  Level FlightAware Approximate
Fri 01:46:00 PM 42.9167 -71.4333 216° Southwest  Level FlightAware Approximate
Fri 01:47:00 PM 42.9328 -71.4358 216° Southwest  Level Estimated
Fri 01:48:00 PM 42.9328 -71.4358 216° Southwest  Level Estimated
Fri 01:49:00 PM 42.9328 -71.4358 216° Southwest  Level Estimated
Fri 01:50:00 PM 42.9328 -71.4358 216° Southwest  Level Estimated
Fri 01:51:00 PM 42.9328 -71.4358 216° Southwest  Level Estimated
Fri 01:52:00 PM 42.9328 -71.4358 216° Southwest  Level Estimated

Login

Don't have an account? Register now (free) for customized features, flight alerts, and more!